createdAt,value
2022-09-04T00:01:22.843Z,1.90
2022-09-04T00:03:59.773Z,1.67
2022-09-04T00:06:34.567Z,2.03
2022-09-04T00:09:15.654Z,2.67
2022-09-04T00:11:50.979Z,2.33
2022-09-04T00:14:22.897Z,1.85
2022-09-04T00:16:58.544Z,1.60
2022-09-04T00:19:35.996Z,1.90
2022-09-04T00:22:11.270Z,1.73
2022-09-04T00:24:43.887Z,1.80
2022-09-04T00:27:19.113Z,1.70
2022-09-04T00:29:53.092Z,2.35
2022-09-04T00:32:35.353Z,1.83
2022-09-04T00:35:14.555Z,1.90
2022-09-04T00:37:47.368Z,1.70
2022-09-04T00:40:22.058Z,1.77
2022-09-04T00:43:27.942Z,2.08
2022-09-04T00:46:09.179Z,1.90
2022-09-04T00:49:11.661Z,2.10
2022-09-04T00:51:54.037Z,2.58
2022-09-04T00:54:56.097Z,1.77
2022-09-04T00:58:04.789Z,1.80
2022-09-04T01:00:33.170Z,2.30
2022-09-04T01:03:19.921Z,2.10
2022-09-04T01:06:05.385Z,2.60
2022-09-04T01:08:48.940Z,2.30
2022-09-04T01:11:34.110Z,2.67
2022-09-04T01:14:13.472Z,1.92
2022-09-04T01:16:48.681Z,2.55
2022-09-04T01:19:31.475Z,2.28
2022-09-04T01:22:17.348Z,1.90
2022-09-04T01:25:14.966Z,2.20
2022-09-04T01:27:51.846Z,2.03
2022-09-04T01:30:21.704Z,2.47
2022-09-04T01:33:03.028Z,2.00
2022-09-04T01:35:36.295Z,2.50
2022-09-04T01:38:13.978Z,2.00
2022-09-04T01:40:48.575Z,2.63
2022-09-04T01:43:21.293Z,2.05
2022-09-04T01:46:32.452Z,1.97
2022-09-04T01:49:06.793Z,2.15
2022-09-04T01:51:41.325Z,2.45
2022-09-04T01:54:26.079Z,2.00
2022-09-04T01:57:07.372Z,2.03
2022-09-04T01:59:53.446Z,2.05
2022-09-04T02:02:29.839Z,2.40
2022-09-04T02:05:08.450Z,2.28
2022-09-04T02:07:46.871Z,1.92
2022-09-04T02:10:29.410Z,2.50
2022-09-04T02:13:07.578Z,1.92
2022-09-04T02:15:44.020Z,2.30
2022-09-04T02:18:23.518Z,2.63
2022-09-04T02:20:57.898Z,2.35
2022-09-04T02:23:35.458Z,2.35
2022-09-04T02:26:11.618Z,1.65
2022-09-04T02:28:53.364Z,1.85
2022-09-04T02:31:31.556Z,2.22
2022-09-04T02:34:06.964Z,2.30
2022-09-04T02:36:42.632Z,2.05
2022-09-04T02:39:22.351Z,2.20
2022-09-04T02:42:00.816Z,2.30
2022-09-04T02:44:45.220Z,1.92
2022-09-04T02:47:30.964Z,2.15
2022-09-04T02:50:04.735Z,2.28
2022-09-04T02:55:47.027Z,2.42
2022-09-04T02:58:26.144Z,2.05
2022-09-04T03:01:04.364Z,2.28
2022-09-04T03:03:42.037Z,2.20
2022-09-04T03:06:13.650Z,2.42
2022-09-04T03:08:48.406Z,2.50
2022-09-04T03:11:25.595Z,2.17
2022-09-04T03:14:04.486Z,2.20
2022-09-04T03:16:38.601Z,1.88
2022-09-04T03:19:18.580Z,2.58
2022-09-04T03:21:54.479Z,2.15
2022-09-04T03:24:27.641Z,2.38
2022-09-04T03:26:57.761Z,2.35
2022-09-04T03:29:34.462Z,2.20
2022-09-04T03:32:16.376Z,2.20
2022-09-04T03:34:55.187Z,2.55
2022-09-04T03:37:42.058Z,2.97
2022-09-04T03:40:23.700Z,2.80
2022-09-04T03:43:07.193Z,2.10
2022-09-04T03:45:48.245Z,2.47
2022-09-04T03:48:29.041Z,2.33
2022-09-04T03:51:03.063Z,2.58
2022-09-04T03:53:37.248Z,2.47
2022-09-04T03:56:21.329Z,2.83
2022-09-04T04:01:35.356Z,3.53
2022-09-04T04:04:37.294Z,2.42
2022-09-04T04:07:16.934Z,2.83
2022-09-04T04:10:01.131Z,2.58
2022-09-04T04:12:51.504Z,2.20
2022-09-04T04:15:31.642Z,3.03
2022-09-04T04:18:26.281Z,2.20
2022-09-04T04:21:03.651Z,2.90
2022-09-04T04:24:15.667Z,2.92
2022-09-04T04:27:00.070Z,2.90
2022-09-04T04:29:48.181Z,3.67
2022-09-04T04:32:33.918Z,2.95
2022-09-04T04:35:16.627Z,4.32
2022-09-04T04:37:59.133Z,3.70
2022-09-04T04:40:41.921Z,2.90
2022-09-04T04:43:19.291Z,3.25
2022-09-04T04:45:55.772Z,2.85
2022-09-04T04:48:41.791Z,3.33
2022-09-04T04:51:24.574Z,3.80
2022-09-04T04:53:59.364Z,3.67
2022-09-04T04:56:36.450Z,3.95
2022-09-04T04:59:20.915Z,4.43
2022-09-04T05:01:57.446Z,4.10
2022-09-04T05:04:37.865Z,3.95
2022-09-04T05:07:14.414Z,3.70
2022-09-04T05:09:49.236Z,3.15
2022-09-04T05:12:26.289Z,3.55
2022-09-04T05:14:59.753Z,3.60
2022-09-04T05:17:37.419Z,3.83
2022-09-04T05:20:34.799Z,4.25
2022-09-04T05:23:14.285Z,3.22
2022-09-04T05:25:51.156Z,3.47
2022-09-04T05:28:31.498Z,4.18
2022-09-04T05:31:14.201Z,3.80
2022-09-04T05:33:55.561Z,3.63
2022-09-04T05:36:34.052Z,3.88
2022-09-04T05:39:11.399Z,4.18
2022-09-04T05:41:52.631Z,3.88
2022-09-04T05:44:39.194Z,4.38
2022-09-04T05:47:18.878Z,4.22
2022-09-04T05:50:10.709Z,3.50
2022-09-04T05:53:17.190Z,3.05
2022-09-04T05:56:14.977Z,2.67
2022-09-04T05:59:04.106Z,2.67
2022-09-04T06:02:00.668Z,4.43
2022-09-04T06:04:44.628Z,3.80
2022-09-04T06:07:17.789Z,3.03
2022-09-04T06:09:59.997Z,2.47
2022-09-04T06:13:06.325Z,3.55
2022-09-04T06:15:45.008Z,2.88
2022-09-04T06:18:44.428Z,3.40
2022-09-04T06:21:46.174Z,4.10
2022-09-04T06:24:40.391Z,3.42
2022-09-04T06:27:19.519Z,3.63
2022-09-04T06:30:03.435Z,3.42
2022-09-04T06:33:09.939Z,4.22
2022-09-04T06:36:08.281Z,4.85
2022-09-04T06:38:46.540Z,4.47
2022-09-04T06:41:31.122Z,5.72
2022-09-04T06:44:11.028Z,6.75
2022-09-04T06:46:45.386Z,5.82
2022-09-04T06:49:19.330Z,5.53
2022-09-04T06:52:08.859Z,5.97
2022-09-04T06:54:48.717Z,6.32
2022-09-04T06:57:43.476Z,4.55
2022-09-04T07:00:13.493Z,5.65
2022-09-04T07:02:55.674Z,3.35
2022-09-04T07:05:30.765Z,5.10
2022-09-04T07:08:09.609Z,3.45
2022-09-04T07:10:42.680Z,6.75
2022-09-04T07:13:29.786Z,6.15
2022-09-04T07:16:29.233Z,6.10
2022-09-04T07:19:18.805Z,5.95
2022-09-04T07:22:07.924Z,4.72
2022-09-04T07:24:57.164Z,5.32
2022-09-04T07:27:38.269Z,6.68
2022-09-04T07:30:16.759Z,7.45
2022-09-04T07:32:53.157Z,6.50
2022-09-04T07:35:29.714Z,6.20
2022-09-04T07:38:05.131Z,7.90
2022-09-04T07:40:39.647Z,6.90
2022-09-04T07:43:14.680Z,6.30
2022-09-04T07:45:51.533Z,6.25
2022-09-04T07:48:26.085Z,4.68
2022-09-04T07:51:03.769Z,5.97
2022-09-04T07:54:04.312Z,5.32
2022-09-04T07:56:54.028Z,3.92
2022-09-04T07:59:54.472Z,6.35
2022-09-04T08:02:38.059Z,5.72
2022-09-04T08:05:25.175Z,5.35
2022-09-04T08:08:26.487Z,6.35
2022-09-04T08:11:12.377Z,5.53
2022-09-04T08:14:11.321Z,5.53
2022-09-04T08:16:46.461Z,5.55
2022-09-04T08:19:28.908Z,5.25
2022-09-04T08:21:57.659Z,5.07
2022-09-04T08:25:07.237Z,4.03
2022-09-04T08:27:51.778Z,4.40
2022-09-04T08:30:23.140Z,4.68
2022-09-04T08:33:31.206Z,4.05
2022-09-04T08:36:04.445Z,4.00
2022-09-04T08:38:51.599Z,4.80
2022-09-04T08:42:20.873Z,4.25
2022-09-04T08:45:47.158Z,3.42
2022-09-04T08:48:57.809Z,4.57
2022-09-04T08:52:01.745Z,3.78
2022-09-04T08:55:03.403Z,3.50
2022-09-04T08:57:54.553Z,3.35
2022-09-04T09:00:24.234Z,3.00
2022-09-04T09:03:34.421Z,3.22
2022-09-04T09:06:41.055Z,3.15
2022-09-04T09:09:38.784Z,3.45
2022-09-04T09:12:41.271Z,3.63
2022-09-04T09:15:36.604Z,3.22
2022-09-04T09:18:26.028Z,2.90
2022-09-04T09:21:07.246Z,2.65
2022-09-04T09:24:10.966Z,2.70
2022-09-04T09:26:52.767Z,2.55
2022-09-04T09:29:42.564Z,3.17
2022-09-04T09:32:45.729Z,3.45
2022-09-04T09:35:53.354Z,2.63
2022-09-04T09:39:05.692Z,2.58
2022-09-04T09:42:20.163Z,2.65
2022-09-04T09:45:36.772Z,2.58
2022-09-04T09:48:39.684Z,2.40
2022-09-04T09:51:40.272Z,1.83
2022-09-04T09:54:42.119Z,1.98
2022-09-04T09:57:37.257Z,2.50
2022-09-04T10:00:25.905Z,2.85
2022-09-04T10:03:48.050Z,2.92
2022-09-04T10:06:54.336Z,3.15
2022-09-04T10:09:57.833Z,2.30
2022-09-04T10:12:48.007Z,1.90
2022-09-04T10:15:39.638Z,2.25
2022-09-04T10:18:37.632Z,2.28
2022-09-04T10:21:37.966Z,1.83
2022-09-04T10:24:31.990Z,2.63
2022-09-04T10:30:07.784Z,2.33
2022-09-04T10:33:18.857Z,1.88
2022-09-04T10:36:00.382Z,1.40
2022-09-04T10:38:38.245Z,1.63
2022-09-04T10:41:44.942Z,1.70
2022-09-04T10:44:52.122Z,1.83
2022-09-04T10:47:36.512Z,2.20
2022-09-04T10:50:36.503Z,1.48
2022-09-04T10:53:27.011Z,1.83
2022-09-04T10:56:09.546Z,1.60
2022-09-04T10:58:45.267Z,1.30
2022-09-04T11:01:55.869Z,1.40
2022-09-04T11:04:48.720Z,1.40
2022-09-04T11:07:40.454Z,1.75
2022-09-04T11:10:22.602Z,1.80
2022-09-04T11:13:38.734Z,1.40
2022-09-04T11:16:20.198Z,1.42
2022-09-04T11:19:48.208Z,1.60
2022-09-04T11:23:01.187Z,1.30
2022-09-04T11:26:06.125Z,1.77
2022-09-04T11:28:51.816Z,1.55
2022-09-04T11:31:48.594Z,1.48
2022-09-04T11:35:00.017Z,1.20
2022-09-04T11:38:03.762Z,1.52
2022-09-04T11:41:20.652Z,1.80
2022-09-04T11:44:29.809Z,1.35
2022-09-04T11:47:24.928Z,1.33
2022-09-04T11:50:16.766Z,1.20
2022-09-04T11:53:19.971Z,1.27
2022-09-04T11:56:07.143Z,1.00
2022-09-04T11:58:55.493Z,0.85
2022-09-04T12:01:47.959Z,1.60
2022-09-04T12:04:31.850Z,1.23
2022-09-04T12:07:25.171Z,1.17
2022-09-04T12:10:13.874Z,0.95
2022-09-04T12:13:07.612Z,1.27
2022-09-04T12:16:22.024Z,1.50
2022-09-04T12:19:14.410Z,1.35
2022-09-04T12:22:08.650Z,1.35
2022-09-04T12:24:59.489Z,1.30
2022-09-04T12:28:01.610Z,1.25
2022-09-04T12:30:38.413Z,1.52
2022-09-04T12:33:40.357Z,0.82
2022-09-04T12:36:29.634Z,1.35
2022-09-04T12:39:22.714Z,1.30
2022-09-04T12:41:59.231Z,1.17
2022-09-04T12:44:40.094Z,1.40
2022-09-04T12:47:20.170Z,0.90
2022-09-04T12:50:05.382Z,1.30
2022-09-04T12:52:47.615Z,1.38
2022-09-04T12:55:23.337Z,1.00
2022-09-04T12:58:08.814Z,1.02
2022-09-04T13:00:48.492Z,0.90
2022-09-04T13:03:29.462Z,1.10
2022-09-04T13:06:11.008Z,1.20
2022-09-04T13:08:52.545Z,0.93
2022-09-04T13:11:34.948Z,1.10
2022-09-04T13:14:22.388Z,1.25
2022-09-04T13:16:59.806Z,0.77
2022-09-04T13:19:36.246Z,1.30
2022-09-04T13:22:18.560Z,1.20
2022-09-04T13:25:02.710Z,1.00
2022-09-04T13:27:41.058Z,1.10
2022-09-04T13:30:21.926Z,1.23
2022-09-04T13:33:13.946Z,0.70
2022-09-04T13:36:01.525Z,1.20
2022-09-04T13:39:17.142Z,0.90
2022-09-04T13:42:20.499Z,1.17
2022-09-04T13:45:02.393Z,1.33
2022-09-04T13:47:35.731Z,0.73
2022-09-04T13:50:10.300Z,1.20
2022-09-04T13:52:45.991Z,1.20
2022-09-04T13:55:19.691Z,1.20
2022-09-04T13:57:57.526Z,1.10
2022-09-04T14:00:28.541Z,1.52
2022-09-04T14:03:01.626Z,1.63
2022-09-04T14:05:33.203Z,1.10
2022-09-04T14:08:05.474Z,0.90
2022-09-04T14:10:50.892Z,0.95
2022-09-04T14:13:37.756Z,1.00
2022-09-04T14:16:11.848Z,1.02
2022-09-04T14:19:15.378Z,1.30
2022-09-04T14:22:00.402Z,1.10
2022-09-04T14:24:35.293Z,1.20
2022-09-04T14:27:15.114Z,1.17
2022-09-04T14:30:03.555Z,1.10
2022-09-04T14:32:43.908Z,0.95
2022-09-04T14:35:20.189Z,1.00
2022-09-04T14:38:14.356Z,1.13
2022-09-04T14:40:50.494Z,1.63
2022-09-04T14:43:32.386Z,1.10
2022-09-04T14:46:11.278Z,1.05
2022-09-04T14:48:42.212Z,0.95
2022-09-04T14:51:18.877Z,1.08
2022-09-04T14:53:49.535Z,1.23
2022-09-04T14:56:27.323Z,1.00
2022-09-04T14:59:00.975Z,1.10
2022-09-04T15:01:33.381Z,1.02
2022-09-04T15:04:08.660Z,1.70
2022-09-04T15:07:09.785Z,1.20
2022-09-04T15:09:39.503Z,1.10
2022-09-04T15:12:26.188Z,1.20
2022-09-04T15:15:00.284Z,1.00
2022-09-04T15:17:32.131Z,1.05
2022-09-04T15:20:04.340Z,0.77
2022-09-04T15:22:39.642Z,0.73
2022-09-04T15:25:10.888Z,0.70
2022-09-04T15:27:50.953Z,0.90
2022-09-04T15:30:21.931Z,1.05
2022-09-04T15:33:03.543Z,1.48
2022-09-04T15:35:33.816Z,1.15
2022-09-04T15:38:08.368Z,1.08
2022-09-04T15:40:59.547Z,0.75
2022-09-04T15:43:38.998Z,1.13
2022-09-04T15:46:13.508Z,1.63
2022-09-04T15:49:30.393Z,1.13
2022-09-04T16:02:55.080Z,0.85
2022-09-04T16:05:28.480Z,1.05
2022-09-04T16:08:05.437Z,0.80
2022-09-04T16:10:48.254Z,1.10
2022-09-04T16:13:39.503Z,1.00
2022-09-04T16:16:16.251Z,1.00
2022-09-04T16:18:53.876Z,1.00
2022-09-04T16:21:32.364Z,1.38
2022-09-04T16:24:09.886Z,1.08
2022-09-04T16:26:39.321Z,0.70
2022-09-04T16:29:16.018Z,1.30
2022-09-04T16:31:53.350Z,1.10
2022-09-04T16:34:25.933Z,1.30
2022-09-04T16:37:02.082Z,1.00
2022-09-04T16:39:40.037Z,1.02
2022-09-04T16:42:20.015Z,1.10
2022-09-04T16:44:53.008Z,1.20
2022-09-04T16:47:29.349Z,1.10
2022-09-04T16:50:13.999Z,0.77
2022-09-04T16:53:12.969Z,0.90
2022-09-04T16:55:48.163Z,0.90
2022-09-04T16:58:35.307Z,1.20
2022-09-04T17:01:15.777Z,1.75
2022-09-04T17:04:23.389Z,0.98
2022-09-04T17:07:03.777Z,1.00
2022-09-04T17:09:45.358Z,1.23
2022-09-04T17:12:26.426Z,1.08
2022-09-04T17:15:06.906Z,1.17
2022-09-04T17:17:41.222Z,1.42
2022-09-04T17:20:12.868Z,1.17
2022-09-04T17:28:59.981Z,1.20
2022-09-04T17:29:08.895Z,1.00
2022-09-04T17:29:11.929Z,1.20
2022-09-04T17:31:46.106Z,1.00
2022-09-04T17:40:38.422Z,1.27
2022-09-04T17:40:39.588Z,1.55
2022-09-04T17:40:53.112Z,1.38
2022-09-04T17:43:23.677Z,1.05
2022-09-04T17:46:03.538Z,1.80
2022-09-04T17:48:35.060Z,1.08
2022-09-04T17:51:07.538Z,1.30
2022-09-04T17:53:40.206Z,1.47
2022-09-04T17:56:19.422Z,1.50
2022-09-04T17:58:53.995Z,1.58
2022-09-04T18:01:27.724Z,1.50
2022-09-04T18:04:22.630Z,1.17
2022-09-04T18:10:32.622Z,1.48
2022-09-04T18:13:38.178Z,1.30
2022-09-04T18:16:20.591Z,1.48
2022-09-04T18:18:53.086Z,2.05
2022-09-04T18:21:26.814Z,1.13
2022-09-04T18:24:02.146Z,1.52
2022-09-04T18:26:40.473Z,1.52
2022-09-04T18:35:09.546Z,1.45
2022-09-04T18:37:23.852Z,2.53
2022-09-04T18:38:19.916Z,1.45
2022-09-04T18:45:32.653Z,1.88
2022-09-04T18:47:41.632Z,1.70
2022-09-04T18:50:36.086Z,2.13
2022-09-04T18:50:42.794Z,2.90
2022-09-04T18:52:31.923Z,1.40
2022-09-04T18:55:09.110Z,1.58
2022-09-04T18:57:49.203Z,1.58
2022-09-04T19:00:27.062Z,2.00
2022-09-04T19:03:12.977Z,1.55
2022-09-04T19:05:47.158Z,1.83
2022-09-04T19:08:22.072Z,1.38
2022-09-04T19:10:57.574Z,1.42
2022-09-04T19:13:29.391Z,2.10
2022-09-04T19:16:06.948Z,1.27
2022-09-04T19:18:50.701Z,1.50
2022-09-04T19:21:33.841Z,1.30
2022-09-04T19:24:19.467Z,1.42
2022-09-04T19:27:26.853Z,2.30
2022-09-04T19:30:19.816Z,1.25
2022-09-04T19:33:05.927Z,1.45
2022-09-04T19:35:44.496Z,1.73
2022-09-04T19:44:49.036Z,1.52
2022-09-04T19:46:03.652Z,1.67
2022-09-04T19:46:16.441Z,1.50
2022-09-04T19:47:27.575Z,1.90
2022-09-04T19:53:19.745Z,1.52
2022-09-04T19:53:36.808Z,1.55
2022-09-04T19:56:08.815Z,1.80
2022-09-04T19:58:44.195Z,1.70
2022-09-04T20:01:16.703Z,2.35
2022-09-04T20:03:49.969Z,1.63
2022-09-04T20:06:25.907Z,1.58
2022-09-04T20:09:02.411Z,1.55
2022-09-04T20:11:36.639Z,1.50
2022-09-04T20:14:16.509Z,1.75
2022-09-04T20:16:57.530Z,1.63
2022-09-04T20:19:31.612Z,1.63
2022-09-04T20:22:03.838Z,2.08
2022-09-04T20:24:40.901Z,2.00
2022-09-04T20:27:19.208Z,1.77
2022-09-04T20:29:54.528Z,1.67
2022-09-04T20:32:29.126Z,1.73
2022-09-04T20:35:13.094Z,2.13
2022-09-04T20:37:45.970Z,1.60
2022-09-04T20:40:27.079Z,2.00
2022-09-04T20:43:11.962Z,1.73
2022-09-04T20:49:13.969Z,2.25
2022-09-04T20:52:59.380Z,1.90
2022-09-04T20:53:00.035Z,1.85
2022-09-04T20:55:07.257Z,2.17
2022-09-04T21:03:11.577Z,2.25
2022-09-04T21:03:18.289Z,2.00
2022-09-04T21:04:04.673Z,2.10
2022-09-04T21:06:38.995Z,1.90
2022-09-04T21:09:19.995Z,1.80
2022-09-04T21:11:54.461Z,1.90
2022-09-04T21:14:36.557Z,1.90
2022-09-04T21:17:34.911Z,2.00
2022-09-04T21:20:33.092Z,1.85
2022-09-04T21:23:23.301Z,2.05
2022-09-04T21:26:03.804Z,2.53
2022-09-04T21:29:10.639Z,2.17
2022-09-04T21:32:01.900Z,2.55
2022-09-04T21:34:47.433Z,2.08
2022-09-04T21:37:27.916Z,1.90
2022-09-04T21:40:49.552Z,1.92
2022-09-04T21:43:36.469Z,2.28
2022-09-04T21:46:21.102Z,2.33
2022-09-04T21:49:08.040Z,2.63
2022-09-04T21:51:56.598Z,1.98
2022-09-04T21:57:53.202Z,2.42
2022-09-04T22:02:35.217Z,2.33
2022-09-04T22:02:37.302Z,1.85
2022-09-04T22:04:03.257Z,2.90
2022-09-04T22:07:20.880Z,2.40
2022-09-04T22:13:27.261Z,2.22
2022-09-04T22:13:43.867Z,2.80
2022-09-04T22:15:45.467Z,2.40
2022-09-04T22:18:33.460Z,2.47
2022-09-04T22:21:24.539Z,2.30
2022-09-04T22:24:36.335Z,2.20
2022-09-04T22:28:07.842Z,3.13
2022-09-04T22:30:45.606Z,2.45
2022-09-04T22:34:14.284Z,2.20
2022-09-04T22:37:01.282Z,2.58
2022-09-04T22:39:47.396Z,2.40
2022-09-04T22:42:33.399Z,2.80
2022-09-04T22:45:25.722Z,2.50
2022-09-04T22:48:20.444Z,2.10
2022-09-04T22:50:57.835Z,2.78
2022-09-04T22:53:52.830Z,2.20
2022-09-04T22:56:33.456Z,2.45
2022-09-04T22:59:29.743Z,2.42
2022-09-04T23:02:40.793Z,2.08
2022-09-04T23:05:41.278Z,2.50
2022-09-04T23:13:49.106Z,2.13
2022-09-04T23:13:53.539Z,2.40
2022-09-04T23:14:38.485Z,2.13
2022-09-04T23:17:33.238Z,2.08
2022-09-04T23:26:33.792Z,2.58
2022-09-04T23:26:54.236Z,3.17
2022-09-04T23:27:13.237Z,2.38
2022-09-04T23:30:25.534Z,2.67
2022-09-04T23:33:28.043Z,2.72
2022-09-04T23:36:10.835Z,2.67
2022-09-04T23:39:10.824Z,2.50
2022-09-04T23:41:56.508Z,2.20
2022-09-04T23:44:45.073Z,2.50
2022-09-04T23:47:48.091Z,2.90
2022-09-04T23:50:30.433Z,2.30
2022-09-04T23:53:12.483Z,2.38
2022-09-04T23:55:55.424Z,2.40
2022-09-04T23:59:02.694Z,2.75
